Bourton on the Water, United Kingdom
Current Conditions -  °F | °C
As of 2:50 PM on Monday 22 Dec 2014 (Local Time) from EGVN Reporting Station
Overcast Overcast  
Wind Chill: 54°   Ceiling: 1700
Heat Index: 54°   Visibility: 6mi
Dew Point: 48°   Wind: 17mph
Humidity: 82%   Direction: 260°W
Pressure: 30"   Gusts: 31mph
Location:  51.87°N, 1.75°W
Report Text: EGVN 221450Z 26015G27KT 9999 FEW014 OVC017 12/09 Q1016 WHT TEMPO BKN012 GRN
Loading
Personal Weather Stations






























Interactive Weather Map New forecast layout! Learn more

10-Day Weather Forecast

Advertisements
Track Severe Weather on mobile